Huvudsida
METAR-TAF:

METAR-TAF

Flygplatser :

Port Vila, Efate, Vanuatu

latitud: 17-42S, longitud: 168-18E, höjd: 20 m

Aktuellt väderrapport

Denna rapport gjordes för 31 minuter sedan, klockan 22:00 UTC
Vind 9 kt från ost/sydost
Temperatur 28°C
Fuktighet 84%
Tryck 1011 hPa
Sikt 10 km eller mer
Brutna moln på en höjd av 2000 ft

METAR: NVVV 202200Z 12009KT 9999 BKN020 28/25 Q1011

Tid: 09:31 (22:31 UTC)

Väderprognos

Denna rapport gjordes för 6 timmar och 31 minuter sedan, klockan 16:00 UTC
Prognos gäller från 20 kl. 18 UTC till 21 kl. 18 UTC
Vind 3 kt varierande vindriktning
Sikt 10 km eller mer
Spridda moln på en höjd av 2000 ft
Brutna moln på en höjd av 11000 ft

TAF: NVVV 201600Z 2018/2118 VRB03KT 9999 SCT020 BKN110

Aktuella väderrapporter och prognoser från 4000 flygplatser (METAR- och TAF-rapporter).

De tillgängliga stationerna syns som gula och röda prickar på kartan.

För musen över prickarna för att se namnen på stationerna.

Klicka sedan för att få väderrapporter och prognoser.

För att ändra kartan: Klicka på de gröna knapparna med ett svart kors på för att zooma in; den gröna knappen med ett streck på för att zooma ut; eller på de gröna pilarna för angränsande kartor.


METAR-TAF: